sensor_id;sensor_type;location;lat;lon;timestamp;temperature;humidity
23991;DHT22;12205;50.600;4.608;2022-11-20T00:00:51;5.80;99.90
23991;DHT22;12205;50.600;4.608;2022-11-20T00:03:18;5.70;99.90
23991;DHT22;12205;50.600;4.608;2022-11-20T00:05:45;5.70;99.90
23991;DHT22;12205;50.600;4.608;2022-11-20T00:08:12;5.70;99.90
23991;DHT22;12205;50.600;4.608;2022-11-20T00:10:41;5.70;99.90
23991;DHT22;12205;50.600;4.608;2022-11-20T00:13:08;5.80;99.90
23991;DHT22;12205;50.600;4.608;2022-11-20T00:15:35;5.70;99.90
23991;DHT22;12205;50.600;4.608;2022-11-20T00:18:02;5.70;99.90
23991;DHT22;12205;50.600;4.608;2022-11-20T00:20:29;5.70;99.90
23991;DHT22;12205;50.600;4.608;2022-11-20T00:22:56;5.60;99.90
23991;DHT22;12205;50.600;4.608;2022-11-20T00:25:23;5.50;99.90
23991;DHT22;12205;50.600;4.608;2022-11-20T00:27:52;5.50;99.90
23991;DHT22;12205;50.600;4.608;2022-11-20T00:30:19;5.40;99.90
23991;DHT22;12205;50.600;4.608;2022-11-20T00:32:46;5.40;99.90
23991;DHT22;12205;50.600;4.608;2022-11-20T00:35:13;5.30;99.90
23991;DHT22;12205;50.600;4.608;2022-11-20T00:37:40;5.30;99.90
23991;DHT22;12205;50.600;4.608;2022-11-20T00:40:08;5.20;99.90
23991;DHT22;12205;50.600;4.608;2022-11-20T00:42:36;5.20;99.90
23991;DHT22;12205;50.600;4.608;2022-11-20T00:45:05;5.20;99.90
23991;DHT22;12205;50.600;4.608;2022-11-20T00:47:33;5.30;99.90
23991;DHT22;12205;50.600;4.608;2022-11-20T00:50:00;5.10;99.90
23991;DHT22;12205;50.600;4.608;2022-11-20T00:52:27;5.10;99.90
23991;DHT22;12205;50.600;4.608;2022-11-20T00:54:54;5.20;99.90
23991;DHT22;12205;50.600;4.608;2022-11-20T00:57:21;5.20;99.90
23991;DHT22;12205;50.600;4.608;2022-11-20T00:59:48;5.30;99.90
23991;DHT22;12205;50.600;4.608;2022-11-20T01:02:16;5.30;99.90
23991;DHT22;12205;50.600;4.608;2022-11-20T01:04:44;5.30;99.90
23991;DHT22;12205;50.600;4.608;2022-11-20T01:07:11;5.20;99.90
23991;DHT22;12205;50.600;4.608;2022-11-20T01:09:38;5.30;99.90
23991;DHT22;12205;50.600;4.608;2022-11-20T01:12:05;5.10;99.90
23991;DHT22;12205;50.600;4.608;2022-11-20T01:14:32;5.20;99.90
23991;DHT22;12205;50.600;4.608;2022-11-20T01:16:59;5.20;99.90
23991;DHT22;12205;50.600;4.608;2022-11-20T01:19:28;5.10;99.90
23991;DHT22;12205;50.600;4.608;2022-11-20T01:21:55;5.20;99.90
23991;DHT22;12205;50.600;4.608;2022-11-20T01:24:22;5.20;99.90
23991;DHT22;12205;50.600;4.608;2022-11-20T01:26:50;5.10;99.90
23991;DHT22;12205;50.600;4.608;2022-11-20T01:29:19;5.10;99.90
23991;DHT22;12205;50.600;4.608;2022-11-20T01:31:47;5.10;99.90
23991;DHT22;12205;50.600;4.608;2022-11-20T01:34:17;5.20;99.90
23991;DHT22;12205;50.600;4.608;2022-11-20T01:36:46;5.20;99.90
23991;DHT22;12205;50.600;4.608;2022-11-20T01:39:16;5.10;99.90
23991;DHT22;12205;50.600;4.608;2022-11-20T01:41:45;5.10;99.90
23991;DHT22;12205;50.600;4.608;2022-11-20T01:44:53;5.10;99.90
23991;DHT22;12205;50.600;4.608;2022-11-20T01:47:25;5.20;99.90
23991;DHT22;12205;50.600;4.608;2022-11-20T01:49:58;5.10;99.90
23991;DHT22;12205;50.600;4.608;2022-11-20T01:52:34;5.10;99.90
23991;DHT22;12205;50.600;4.608;2022-11-20T01:55:07;5.10;99.90
23991;DHT22;12205;50.600;4.608;2022-11-20T01:57:36;5.20;99.90
23991;DHT22;12205;50.600;4.608;2022-11-20T02:00:07;5.10;99.90
23991;DHT22;12205;50.600;4.608;2022-11-20T02:02:39;5.10;99.90
23991;DHT22;12205;50.600;4.608;2022-11-20T02:05:17;5.10;99.90
23991;DHT22;12205;50.600;4.608;2022-11-20T02:07:49;5.20;99.90
23991;DHT22;12205;50.600;4.608;2022-11-20T02:10:17;5.30;99.90
23991;DHT22;12205;50.600;4.608;2022-11-20T02:12:44;5.20;99.90
23991;DHT22;12205;50.600;4.608;2022-11-20T02:15:29;5.30;99.90
23991;DHT22;12205;50.600;4.608;2022-11-20T02:17:56;5.20;99.90
23991;DHT22;12205;50.600;4.608;2022-11-20T02:20:23;5.20;99.90
23991;DHT22;12205;50.600;4.608;2022-11-20T02:22:57;5.20;99.90
23991;DHT22;12205;50.600;4.608;2022-11-20T02:25:31;5.20;99.90
23991;DHT22;12205;50.600;4.608;2022-11-20T02:28:02;5.20;99.90
23991;DHT22;12205;50.600;4.608;2022-11-20T02:30:29;5.30;99.90
23991;DHT22;12205;50.600;4.608;2022-11-20T02:32:57;5.30;99.90
23991;DHT22;12205;50.600;4.608;2022-11-20T02:35:42;5.30;99.90
23991;DHT22;12205;50.600;4.608;2022-11-20T02:38:11;5.30;99.90
23991;DHT22;12205;50.600;4.608;2022-11-20T02:40:40;5.20;99.90
23991;DHT22;12205;50.600;4.608;2022-11-20T02:43:07;5.20;99.90
23991;DHT22;12205;50.600;4.608;2022-11-20T02:45:35;5.10;99.90
23991;DHT22;12205;50.600;4.608;2022-11-20T02:48:03;5.10;99.90
23991;DHT22;12205;50.600;4.608;2022-11-20T02:50:32;5.20;99.90
23991;DHT22;12205;50.600;4.608;2022-11-20T02:52:59;5.10;99.90
23991;DHT22;12205;50.600;4.608;2022-11-20T02:55:26;4.90;99.90
23991;DHT22;12205;50.600;4.608;2022-11-20T02:57:55;4.90;99.90
23991;DHT22;12205;50.600;4.608;2022-11-20T03:00:22;4.90;99.90
23991;DHT22;12205;50.600;4.608;2022-11-20T03:02:49;4.90;99.90
23991;DHT22;12205;50.600;4.608;2022-11-20T03:05:16;4.80;99.90
23991;DHT22;12205;50.600;4.608;2022-11-20T03:07:44;4.80;99.90
23991;DHT22;12205;50.600;4.608;2022-11-20T03:10:11;4.80;99.90
23991;DHT22;12205;50.600;4.608;2022-11-20T03:12:38;4.80;99.90
23991;DHT22;12205;50.600;4.608;2022-11-20T03:15:08;4.70;99.90
23991;DHT22;12205;50.600;4.608;2022-11-20T03:17:36;4.70;99.90
23991;DHT22;12205;50.600;4.608;2022-11-20T03:20:03;4.70;99.90
23991;DHT22;12205;50.600;4.608;2022-11-20T03:22:31;4.80;99.90
23991;DHT22;12205;50.600;4.608;2022-11-20T03:24:58;4.70;99.90
23991;DHT22;12205;50.600;4.608;2022-11-20T03:27:26;4.80;99.90
23991;DHT22;12205;50.600;4.608;2022-11-20T03:29:53;4.70;99.90
23991;DHT22;12205;50.600;4.608;2022-11-20T03:32:21;4.80;99.90
23991;DHT22;12205;50.600;4.608;2022-11-20T03:34:48;4.80;99.90
23991;DHT22;12205;50.600;4.608;2022-11-20T03:37:15;4.90;99.90
23991;DHT22;12205;50.600;4.608;2022-11-20T03:39:42;4.80;99.90
23991;DHT22;12205;50.600;4.608;2022-11-20T03:42:09;4.70;99.90
23991;DHT22;12205;50.600;4.608;2022-11-20T03:44:57;4.70;99.90
23991;DHT22;12205;50.600;4.608;2022-11-20T03:47:25;4.70;99.90
23991;DHT22;12205;50.600;4.608;2022-11-20T03:49:52;4.80;99.90
23991;DHT22;12205;50.600;4.608;2022-11-20T03:52:19;4.80;99.90
23991;DHT22;12205;50.600;4.608;2022-11-20T03:54:46;4.90;99.90
23991;DHT22;12205;50.600;4.608;2022-11-20T03:57:13;4.80;99.90
23991;DHT22;12205;50.600;4.608;2022-11-20T03:59:41;4.70;99.90
23991;DHT22;12205;50.600;4.608;2022-11-20T04:02:08;4.70;99.90
23991;DHT22;12205;50.600;4.608;2022-11-20T04:04:36;4.70;99.90
23991;DHT22;12205;50.600;4.608;2022-11-20T04:07:03;4.80;99.90
23991;DHT22;12205;50.600;4.608;2022-11-20T04:09:30;4.80;99.90
23991;DHT22;12205;50.600;4.608;2022-11-20T04:11:57;4.80;99.90
23991;DHT22;12205;50.600;4.608;2022-11-20T04:14:25;4.80;99.90
23991;DHT22;12205;50.600;4.608;2022-11-20T04:16:52;4.80;99.90
23991;DHT22;12205;50.600;4.608;2022-11-20T04:19:19;4.80;99.90
23991;DHT22;12205;50.600;4.608;2022-11-20T04:21:47;4.90;99.90
23991;DHT22;12205;50.600;4.608;2022-11-20T04:24:14;4.90;99.90
23991;DHT22;12205;50.600;4.608;2022-11-20T04:26:41;5.00;99.90
23991;DHT22;12205;50.600;4.608;2022-11-20T04:29:10;5.00;99.90
23991;DHT22;12205;50.600;4.608;2022-11-20T04:31:38;5.00;99.90
23991;DHT22;12205;50.600;4.608;2022-11-20T04:34:07;4.90;99.90
23991;DHT22;12205;50.600;4.608;2022-11-20T04:36:34;5.00;99.90
23991;DHT22;12205;50.600;4.608;2022-11-20T04:39:04;5.00;99.90
23991;DHT22;12205;50.600;4.608;2022-11-20T04:41:34;5.00;99.90
23991;DHT22;12205;50.600;4.608;2022-11-20T04:44:04;5.10;99.90
23991;DHT22;12205;50.600;4.608;2022-11-20T04:46:34;5.10;99.90
23991;DHT22;12205;50.600;4.608;2022-11-20T04:49:02;5.20;99.90
23991;DHT22;12205;50.600;4.608;2022-11-20T04:51:30;5.10;99.90
23991;DHT22;12205;50.600;4.608;2022-11-20T04:53:57;5.10;99.90
23991;DHT22;12205;50.600;4.608;2022-11-20T04:56:25;5.20;99.90
23991;DHT22;12205;50.600;4.608;2022-11-20T04:58:52;5.30;99.90
23991;DHT22;12205;50.600;4.608;2022-11-20T05:01:21;5.30;99.90
23991;DHT22;12205;50.600;4.608;2022-11-20T05:03:49;5.30;99.90
23991;DHT22;12205;50.600;4.608;2022-11-20T05:06:18;5.30;99.90
23991;DHT22;12205;50.600;4.608;2022-11-20T05:08:46;5.30;99.90
23991;DHT22;12205;50.600;4.608;2022-11-20T05:11:15;5.30;99.90
23991;DHT22;12205;50.600;4.608;2022-11-20T05:13:44;5.40;99.90
23991;DHT22;12205;50.600;4.608;2022-11-20T05:16:13;5.40;99.90
23991;DHT22;12205;50.600;4.608;2022-11-20T05:18:41;5.40;99.90
23991;DHT22;12205;50.600;4.608;2022-11-20T05:21:09;5.40;99.90
23991;DHT22;12205;50.600;4.608;2022-11-20T05:23:38;5.40;99.90
23991;DHT22;12205;50.600;4.608;2022-11-20T05:26:06;5.40;99.90
23991;DHT22;12205;50.600;4.608;2022-11-20T05:28:34;5.40;99.90
23991;DHT22;12205;50.600;4.608;2022-11-20T05:31:07;5.50;99.90
23991;DHT22;12205;50.600;4.608;2022-11-20T05:33:36;5.50;99.90
23991;DHT22;12205;50.600;4.608;2022-11-20T05:36:03;5.50;99.90
23991;DHT22;12205;50.600;4.608;2022-11-20T05:38:32;5.50;99.90
23991;DHT22;12205;50.600;4.608;2022-11-20T05:41:06;5.50;99.90
23991;DHT22;12205;50.600;4.608;2022-11-20T05:43:35;5.50;99.90
23991;DHT22;12205;50.600;4.608;2022-11-20T05:46:03;5.50;99.90
23991;DHT22;12205;50.600;4.608;2022-11-20T05:48:33;5.40;99.90
23991;DHT22;12205;50.600;4.608;2022-11-20T05:51:03;5.40;99.90
23991;DHT22;12205;50.600;4.608;2022-11-20T05:53:32;5.40;99.90
23991;DHT22;12205;50.600;4.608;2022-11-20T05:56:00;5.50;99.90
23991;DHT22;12205;50.600;4.608;2022-11-20T05:58:29;5.40;99.90
23991;DHT22;12205;50.600;4.608;2022-11-20T06:01:04;5.50;99.90
23991;DHT22;12205;50.600;4.608;2022-11-20T06:03:33;5.50;99.90
23991;DHT22;12205;50.600;4.608;2022-11-20T06:06:01;5.40;99.90
23991;DHT22;12205;50.600;4.608;2022-11-20T06:08:29;5.50;99.90
23991;DHT22;12205;50.600;4.608;2022-11-20T06:10:57;5.50;99.90
23991;DHT22;12205;50.600;4.608;2022-11-20T06:13:26;5.40;99.90
23991;DHT22;12205;50.600;4.608;2022-11-20T06:15:53;5.40;99.90
23991;DHT22;12205;50.600;4.608;2022-11-20T06:18:20;5.50;99.90
23991;DHT22;12205;50.600;4.608;2022-11-20T06:20:49;5.60;99.90
23991;DHT22;12205;50.600;4.608;2022-11-20T06:23:16;5.60;99.90
23991;DHT22;12205;50.600;4.608;2022-11-20T06:25:43;5.60;99.90
23991;DHT22;12205;50.600;4.608;2022-11-20T06:28:10;5.60;99.90
23991;DHT22;12205;50.600;4.608;2022-11-20T06:30:37;5.70;99.90
23991;DHT22;12205;50.600;4.608;2022-11-20T06:33:11;5.70;99.90
23991;DHT22;12205;50.600;4.608;2022-11-20T06:35:38;5.80;99.90
23991;DHT22;12205;50.600;4.608;2022-11-20T06:38:06;5.80;99.90
23991;DHT22;12205;50.600;4.608;2022-11-20T06:40:34;5.90;99.90
23991;DHT22;12205;50.600;4.608;2022-11-20T06:43:01;5.90;99.90
23991;DHT22;12205;50.600;4.608;2022-11-20T06:45:28;5.90;99.90
23991;DHT22;12205;50.600;4.608;2022-11-20T06:47:57;5.90;99.90
23991;DHT22;12205;50.600;4.608;2022-11-20T06:50:24;5.90;99.90
23991;DHT22;12205;50.600;4.608;2022-11-20T06:52:51;5.90;99.90
23991;DHT22;12205;50.600;4.608;2022-11-20T06:55:19;5.90;99.90
23991;DHT22;12205;50.600;4.608;2022-11-20T06:57:46;5.90;99.90
23991;DHT22;12205;50.600;4.608;2022-11-20T07:00:14;5.90;99.90
23991;DHT22;12205;50.600;4.608;2022-11-20T07:02:41;6.00;99.90
23991;DHT22;12205;50.600;4.608;2022-11-20T07:05:08;6.00;99.90
23991;DHT22;12205;50.600;4.608;2022-11-20T07:07:35;6.10;99.90
23991;DHT22;12205;50.600;4.608;2022-11-20T07:10:03;6.10;99.90
23991;DHT22;12205;50.600;4.608;2022-11-20T07:12:32;6.10;99.90
23991;DHT22;12205;50.600;4.608;2022-11-20T07:14:59;6.00;99.90
23991;DHT22;12205;50.600;4.608;2022-11-20T07:17:26;6.10;99.90
23991;DHT22;12205;50.600;4.608;2022-11-20T07:19:53;6.00;99.90
23991;DHT22;12205;50.600;4.608;2022-11-20T07:22:20;6.10;99.90
23991;DHT22;12205;50.600;4.608;2022-11-20T07:24:48;6.10;99.90
23991;DHT22;12205;50.600;4.608;2022-11-20T07:27:15;6.10;99.90
23991;DHT22;12205;50.600;4.608;2022-11-20T07:29:43;6.10;99.90
23991;DHT22;12205;50.600;4.608;2022-11-20T07:32:11;6.20;99.90
23991;DHT22;12205;50.600;4.608;2022-11-20T07:34:38;6.20;99.90
23991;DHT22;12205;50.600;4.608;2022-11-20T07:37:05;6.20;99.90
23991;DHT22;12205;50.600;4.608;2022-11-20T07:39:32;6.20;99.90
23991;DHT22;12205;50.600;4.608;2022-11-20T07:41:59;6.30;99.90
23991;DHT22;12205;50.600;4.608;2022-11-20T07:44:26;6.30;99.90
23991;DHT22;12205;50.600;4.608;2022-11-20T07:46:54;6.40;99.90
23991;DHT22;12205;50.600;4.608;2022-11-20T07:49:21;6.40;99.90
23991;DHT22;12205;50.600;4.608;2022-11-20T07:51:50;6.40;99.90
23991;DHT22;12205;50.600;4.608;2022-11-20T07:54:19;6.40;99.90
23991;DHT22;12205;50.600;4.608;2022-11-20T07:56:46;6.40;99.90
23991;DHT22;12205;50.600;4.608;2022-11-20T07:59:14;6.40;99.90
23991;DHT22;12205;50.600;4.608;2022-11-20T08:01:42;6.40;99.90
23991;DHT22;12205;50.600;4.608;2022-11-20T08:04:11;6.40;99.90
23991;DHT22;12205;50.600;4.608;2022-11-20T08:06:38;6.50;99.90
23991;DHT22;12205;50.600;4.608;2022-11-20T08:09:05;6.50;99.90
23991;DHT22;12205;50.600;4.608;2022-11-20T08:11:32;6.60;99.90
23991;DHT22;12205;50.600;4.608;2022-11-20T08:14:17;6.60;99.90
23991;DHT22;12205;50.600;4.608;2022-11-20T08:16:46;6.70;99.90
23991;DHT22;12205;50.600;4.608;2022-11-20T08:19:17;6.70;99.90
23991;DHT22;12205;50.600;4.608;2022-11-20T08:21:45;6.80;99.90
23991;DHT22;12205;50.600;4.608;2022-11-20T08:24:12;6.80;99.90
23991;DHT22;12205;50.600;4.608;2022-11-20T08:26:40;6.90;99.90
23991;DHT22;12205;50.600;4.608;2022-11-20T08:29:07;7.00;99.90
23991;DHT22;12205;50.600;4.608;2022-11-20T08:31:35;6.90;99.90
23991;DHT22;12205;50.600;4.608;2022-11-20T08:34:02;6.90;99.90
23991;DHT22;12205;50.600;4.608;2022-11-20T08:36:32;7.00;99.90
23991;DHT22;12205;50.600;4.608;2022-11-20T08:39:00;6.90;99.90
23991;DHT22;12205;50.600;4.608;2022-11-20T08:41:29;7.10;99.90
23991;DHT22;12205;50.600;4.608;2022-11-20T08:43:59;7.10;99.90
23991;DHT22;12205;50.600;4.608;2022-11-20T08:46:31;7.20;99.90
23991;DHT22;12205;50.600;4.608;2022-11-20T08:49:01;7.30;99.90
23991;DHT22;12205;50.600;4.608;2022-11-20T08:51:29;7.30;99.90
23991;DHT22;12205;50.600;4.608;2022-11-20T08:53:56;7.40;99.90
23991;DHT22;12205;50.600;4.608;2022-11-20T08:56:23;7.40;99.90
23991;DHT22;12205;50.600;4.608;2022-11-20T08:58:51;7.50;99.90
23991;DHT22;12205;50.600;4.608;2022-11-20T09:01:18;7.50;99.90
23991;DHT22;12205;50.600;4.608;2022-11-20T09:03:47;7.60;99.90
23991;DHT22;12205;50.600;4.608;2022-11-20T09:06:14;7.70;99.90
23991;DHT22;12205;50.600;4.608;2022-11-20T09:08:43;7.80;99.90
23991;DHT22;12205;50.600;4.608;2022-11-20T09:11:11;7.70;99.90
23991;DHT22;12205;50.600;4.608;2022-11-20T09:13:38;7.80;99.90
23991;DHT22;12205;50.600;4.608;2022-11-20T09:16:07;7.90;99.90
23991;DHT22;12205;50.600;4.608;2022-11-20T09:18:36;7.90;99.90
23991;DHT22;12205;50.600;4.608;2022-11-20T09:21:05;7.80;99.90
23991;DHT22;12205;50.600;4.608;2022-11-20T09:23:34;7.80;99.90
23991;DHT22;12205;50.600;4.608;2022-11-20T09:26:05;8.10;99.90
23991;DHT22;12205;50.600;4.608;2022-11-20T09:28:33;8.40;99.90
23991;DHT22;12205;50.600;4.608;2022-11-20T09:31:00;8.20;99.90
23991;DHT22;12205;50.600;4.608;2022-11-20T09:33:31;8.20;99.90
23991;DHT22;12205;50.600;4.608;2022-11-20T09:35:58;8.10;99.90
23991;DHT22;12205;50.600;4.608;2022-11-20T09:38:25;8.10;99.90
23991;DHT22;12205;50.600;4.608;2022-11-20T09:40:56;8.20;99.90
23991;DHT22;12205;50.600;4.608;2022-11-20T09:43:32;8.10;99.90
23991;DHT22;12205;50.600;4.608;2022-11-20T09:46:27;8.20;99.90
23991;DHT22;12205;50.600;4.608;2022-11-20T09:49:13;8.30;99.90
23991;DHT22;12205;50.600;4.608;2022-11-20T09:51:53;8.30;99.90
23991;DHT22;12205;50.600;4.608;2022-11-20T09:54:29;8.30;99.90
23991;DHT22;12205;50.600;4.608;2022-11-20T09:57:01;8.30;99.90
23991;DHT22;12205;50.600;4.608;2022-11-20T09:59:36;8.20;99.90
23991;DHT22;12205;50.600;4.608;2022-11-20T10:02:16;8.30;99.90
23991;DHT22;12205;50.600;4.608;2022-11-20T10:05:06;8.30;99.90
23991;DHT22;12205;50.600;4.608;2022-11-20T10:07:42;8.30;99.90
23991;DHT22;12205;50.600;4.608;2022-11-20T10:10:16;8.40;99.90
23991;DHT22;12205;50.600;4.608;2022-11-20T10:12:58;8.40;99.90
23991;DHT22;12205;50.600;4.608;2022-11-20T10:15:45;8.40;99.90
23991;DHT22;12205;50.600;4.608;2022-11-20T10:18:32;8.30;99.90
23991;DHT22;12205;50.600;4.608;2022-11-20T10:21:14;8.30;99.90
23991;DHT22;12205;50.600;4.608;2022-11-20T10:23:59;8.30;99.90
23991;DHT22;12205;50.600;4.608;2022-11-20T10:26:44;8.40;99.90
23991;DHT22;12205;50.600;4.608;2022-11-20T10:29:21;8.40;99.90
23991;DHT22;12205;50.600;4.608;2022-11-20T10:31:59;8.50;99.90
23991;DHT22;12205;50.600;4.608;2022-11-20T10:34:33;8.40;99.90
23991;DHT22;12205;50.600;4.608;2022-11-20T10:37:11;8.40;99.90
23991;DHT22;12205;50.600;4.608;2022-11-20T10:39:47;8.40;99.90
23991;DHT22;12205;50.600;4.608;2022-11-20T10:42:26;8.50;99.90
23991;DHT22;12205;50.600;4.608;2022-11-20T10:45:02;8.70;99.90
23991;DHT22;12205;50.600;4.608;2022-11-20T10:47:41;8.60;99.90
23991;DHT22;12205;50.600;4.608;2022-11-20T10:50:11;8.60;99.90
23991;DHT22;12205;50.600;4.608;2022-11-20T10:52:51;8.60;99.90
23991;DHT22;12205;50.600;4.608;2022-11-20T10:55:30;8.70;99.90
23991;DHT22;12205;50.600;4.608;2022-11-20T10:58:11;8.70;99.90
23991;DHT22;12205;50.600;4.608;2022-11-20T11:00:40;8.90;99.90
23991;DHT22;12205;50.600;4.608;2022-11-20T11:03:22;8.80;99.90
23991;DHT22;12205;50.600;4.608;2022-11-20T11:05:56;8.90;99.90
23991;DHT22;12205;50.600;4.608;2022-11-20T11:08:32;8.90;99.90
23991;DHT22;12205;50.600;4.608;2022-11-20T11:11:15;8.80;99.90
23991;DHT22;12205;50.600;4.608;2022-11-20T11:13:48;8.80;99.90
23991;DHT22;12205;50.600;4.608;2022-11-20T11:16:21;8.70;99.90
23991;DHT22;12205;50.600;4.608;2022-11-20T11:19:02;8.70;99.90
23991;DHT22;12205;50.600;4.608;2022-11-20T11:21:30;8.80;99.90
23991;DHT22;12205;50.600;4.608;2022-11-20T11:23:59;8.70;99.90
23991;DHT22;12205;50.600;4.608;2022-11-20T11:26:28;8.80;99.90
23991;DHT22;12205;50.600;4.608;2022-11-20T11:28:57;8.80;99.90
23991;DHT22;12205;50.600;4.608;2022-11-20T11:31:26;8.70;99.90
23991;DHT22;12205;50.600;4.608;2022-11-20T11:34:05;8.60;99.90
23991;DHT22;12205;50.600;4.608;2022-11-20T11:36:33;8.60;99.90
23991;DHT22;12205;50.600;4.608;2022-11-20T11:39:03;8.60;99.90
23991;DHT22;12205;50.600;4.608;2022-11-20T11:41:33;8.50;99.90
23991;DHT22;12205;50.600;4.608;2022-11-20T11:44:13;8.40;99.90
23991;DHT22;12205;50.600;4.608;2022-11-20T11:47:02;8.40;99.90
23991;DHT22;12205;50.600;4.608;2022-11-20T11:49:33;8.30;99.90
23991;DHT22;12205;50.600;4.608;2022-11-20T11:52:04;8.20;99.90
23991;DHT22;12205;50.600;4.608;2022-11-20T11:54:42;8.20;99.90
23991;DHT22;12205;50.600;4.608;2022-11-20T11:57:20;8.20;99.90
23991;DHT22;12205;50.600;4.608;2022-11-20T11:59:59;8.20;99.90
23991;DHT22;12205;50.600;4.608;2022-11-20T12:02:36;8.30;99.90
23991;DHT22;12205;50.600;4.608;2022-11-20T12:05:17;8.20;99.90
23991;DHT22;12205;50.600;4.608;2022-11-20T12:07:48;8.20;99.90
23991;DHT22;12205;50.600;4.608;2022-11-20T12:10:22;8.20;99.90
23991;DHT22;12205;50.600;4.608;2022-11-20T12:13:01;8.20;99.90
23991;DHT22;12205;50.600;4.608;2022-11-20T12:15:37;8.20;99.90
23991;DHT22;12205;50.600;4.608;2022-11-20T12:18:09;8.20;99.90
23991;DHT22;12205;50.600;4.608;2022-11-20T12:20:48;8.20;99.90
23991;DHT22;12205;50.600;4.608;2022-11-20T12:23:31;8.20;99.90
23991;DHT22;12205;50.600;4.608;2022-11-20T12:26:13;8.20;99.90
23991;DHT22;12205;50.600;4.608;2022-11-20T12:28:52;8.20;99.90
23991;DHT22;12205;50.600;4.608;2022-11-20T12:31:41;8.20;99.90
23991;DHT22;12205;50.600;4.608;2022-11-20T12:34:32;8.20;99.90
23991;DHT22;12205;50.600;4.608;2022-11-20T12:37:26;8.30;99.90
23991;DHT22;12205;50.600;4.608;2022-11-20T12:40:13;8.30;99.90
23991;DHT22;12205;50.600;4.608;2022-11-20T12:43:01;8.40;99.90
23991;DHT22;12205;50.600;4.608;2022-11-20T12:46:12;8.40;99.90
23991;DHT22;12205;50.600;4.608;2022-11-20T12:49:03;8.30;99.90
23991;DHT22;12205;50.600;4.608;2022-11-20T12:51:59;8.30;99.90
23991;DHT22;12205;50.600;4.608;2022-11-20T12:55:13;8.20;99.90
23991;DHT22;12205;50.600;4.608;2022-11-20T12:57:50;8.20;99.90
23991;DHT22;12205;50.600;4.608;2022-11-20T13:00:22;8.20;99.90
23991;DHT22;12205;50.600;4.608;2022-11-20T13:03:05;8.20;99.90
23991;DHT22;12205;50.600;4.608;2022-11-20T13:05:48;8.20;99.90
23991;DHT22;12205;50.600;4.608;2022-11-20T13:08:24;8.20;99.90
23991;DHT22;12205;50.600;4.608;2022-11-20T13:11:00;8.10;99.90
23991;DHT22;12205;50.600;4.608;2022-11-20T13:13:40;8.10;99.90
23991;DHT22;12205;50.600;4.608;2022-11-20T13:16:16;8.10;99.90
23991;DHT22;12205;50.600;4.608;2022-11-20T13:18:46;8.20;99.90
23991;DHT22;12205;50.600;4.608;2022-11-20T13:21:18;8.20;99.90
23991;DHT22;12205;50.600;4.608;2022-11-20T13:23:47;8.20;99.90
23991;DHT22;12205;50.600;4.608;2022-11-20T13:26:19;8.30;99.90
23991;DHT22;12205;50.600;4.608;2022-11-20T13:29:00;8.20;99.90
23991;DHT22;12205;50.600;4.608;2022-11-20T13:31:35;8.10;99.90
23991;DHT22;12205;50.600;4.608;2022-11-20T13:34:07;8.00;99.90
23991;DHT22;12205;50.600;4.608;2022-11-20T13:36:49;8.00;99.90
23991;DHT22;12205;50.600;4.608;2022-11-20T13:39:24;8.00;99.90
23991;DHT22;12205;50.600;4.608;2022-11-20T13:41:56;8.00;99.90
23991;DHT22;12205;50.600;4.608;2022-11-20T13:44:28;8.00;99.90
23991;DHT22;12205;50.600;4.608;2022-11-20T13:47:00;8.00;99.90
23991;DHT22;12205;50.600;4.608;2022-11-20T13:49:32;7.90;99.90
23991;DHT22;12205;50.600;4.608;2022-11-20T13:52:24;7.90;99.90
23991;DHT22;12205;50.600;4.608;2022-11-20T13:55:12;7.90;99.90
23991;DHT22;12205;50.600;4.608;2022-11-20T14:00:51;7.90;99.90
23991;DHT22;12205;50.600;4.608;2022-11-20T14:03:25;7.90;99.90
23991;DHT22;12205;50.600;4.608;2022-11-20T14:05:59;8.00;99.90
23991;DHT22;12205;50.600;4.608;2022-11-20T14:08:36;8.00;99.90
23991;DHT22;12205;50.600;4.608;2022-11-20T14:11:13;7.90;99.90
23991;DHT22;12205;50.600;4.608;2022-11-20T14:13:59;7.90;99.90
23991;DHT22;12205;50.600;4.608;2022-11-20T14:16:31;7.90;99.90
23991;DHT22;12205;50.600;4.608;2022-11-20T14:19:26;7.90;99.90
23991;DHT22;12205;50.600;4.608;2022-11-20T14:22:09;8.00;99.90
23991;DHT22;12205;50.600;4.608;2022-11-20T14:24:43;7.90;99.90
23991;DHT22;12205;50.600;4.608;2022-11-20T14:27:13;7.90;99.90
23991;DHT22;12205;50.600;4.608;2022-11-20T14:29:45;7.90;99.90
23991;DHT22;12205;50.600;4.608;2022-11-20T14:32:14;7.80;99.90
23991;DHT22;12205;50.600;4.608;2022-11-20T14:34:45;7.80;99.90
23991;DHT22;12205;50.600;4.608;2022-11-20T14:37:19;7.80;99.90
23991;DHT22;12205;50.600;4.608;2022-11-20T14:39:51;7.80;99.90
23991;DHT22;12205;50.600;4.608;2022-11-20T14:42:20;7.70;99.90
23991;DHT22;12205;50.600;4.608;2022-11-20T14:44:52;7.80;99.90
23991;DHT22;12205;50.600;4.608;2022-11-20T14:47:24;7.80;99.90
23991;DHT22;12205;50.600;4.608;2022-11-20T14:49:54;7.80;99.90
23991;DHT22;12205;50.600;4.608;2022-11-20T14:52:23;7.80;99.90
23991;DHT22;12205;50.600;4.608;2022-11-20T14:54:53;7.80;99.90
23991;DHT22;12205;50.600;4.608;2022-11-20T14:57:27;7.80;99.90
23991;DHT22;12205;50.600;4.608;2022-11-20T15:00:17;7.80;99.90
23991;DHT22;12205;50.600;4.608;2022-11-20T15:02:47;7.90;99.90
23991;DHT22;12205;50.600;4.608;2022-11-20T15:05:17;7.80;99.90
23991;DHT22;12205;50.600;4.608;2022-11-20T15:07:47;7.80;99.90
23991;DHT22;12205;50.600;4.608;2022-11-20T15:10:21;7.90;99.90
23991;DHT22;12205;50.600;4.608;2022-11-20T15:12:51;7.90;99.90
23991;DHT22;12205;50.600;4.608;2022-11-20T15:15:23;7.90;99.90
23991;DHT22;12205;50.600;4.608;2022-11-20T15:17:55;7.90;99.90
23991;DHT22;12205;50.600;4.608;2022-11-20T15:20:26;7.90;99.90
23991;DHT22;12205;50.600;4.608;2022-11-20T15:22:56;8.00;99.90
23991;DHT22;12205;50.600;4.608;2022-11-20T15:25:23;7.90;99.90
23991;DHT22;12205;50.600;4.608;2022-11-20T15:27:55;8.00;99.90
23991;DHT22;12205;50.600;4.608;2022-11-20T15:30:25;8.00;99.90
23991;DHT22;12205;50.600;4.608;2022-11-20T15:32:52;8.10;99.90
23991;DHT22;12205;50.600;4.608;2022-11-20T15:35:19;8.10;99.90
23991;DHT22;12205;50.600;4.608;2022-11-20T15:37:46;8.10;99.90
23991;DHT22;12205;50.600;4.608;2022-11-20T15:40:13;8.10;99.90
23991;DHT22;12205;50.600;4.608;2022-11-20T15:42:41;8.20;99.90
23991;DHT22;12205;50.600;4.608;2022-11-20T15:45:33;8.20;99.90
23991;DHT22;12205;50.600;4.608;2022-11-20T15:48:05;8.20;99.90
23991;DHT22;12205;50.600;4.608;2022-11-20T15:50:38;8.20;99.90
23991;DHT22;12205;50.600;4.608;2022-11-20T15:53:10;8.20;99.90
23991;DHT22;12205;50.600;4.608;2022-11-20T15:55:37;8.20;99.90
23991;DHT22;12205;50.600;4.608;2022-11-20T15:58:04;8.20;99.90
23991;DHT22;12205;50.600;4.608;2022-11-20T16:00:33;8.30;99.90
23991;DHT22;12205;50.600;4.608;2022-11-20T16:03:00;8.30;99.90
23991;DHT22;12205;50.600;4.608;2022-11-20T16:05:28;8.30;99.90
23991;DHT22;12205;50.600;4.608;2022-11-20T16:07:56;8.30;99.90
23991;DHT22;12205;50.600;4.608;2022-11-20T16:10:24;8.30;99.90
23991;DHT22;12205;50.600;4.608;2022-11-20T16:12:51;8.30;99.90
23991;DHT22;12205;50.600;4.608;2022-11-20T16:15:37;8.20;99.90